createdAt,value
2022-09-20T00:01:48.661Z,7.50
2022-09-20T00:04:15.753Z,6.43
2022-09-20T00:06:42.850Z,6.80
2022-09-20T00:09:09.993Z,6.22
2022-09-20T00:11:37.140Z,5.82
2022-09-20T00:14:06.054Z,6.97
2022-09-20T00:16:34.105Z,5.40
2022-09-20T00:19:03.828Z,4.97
2022-09-20T00:21:31.155Z,6.40
2022-09-20T00:23:58.258Z,4.93
2022-09-20T00:26:25.824Z,5.60
2022-09-20T00:28:53.059Z,4.90
2022-09-20T00:31:20.296Z,5.88
2022-09-20T00:34:05.996Z,7.22
2022-09-20T00:36:33.147Z,6.65
2022-09-20T00:39:00.746Z,6.80
2022-09-20T00:41:27.985Z,6.50
2022-09-20T00:43:55.235Z,7.65
2022-09-20T00:46:48.646Z,8.00
2022-09-20T00:49:19.754Z,9.48
2022-09-20T00:51:48.431Z,8.20
2022-09-20T00:54:20.092Z,9.10
2022-09-20T00:56:47.512Z,8.88
2022-09-20T00:59:27.819Z,9.40
2022-09-20T01:01:57.012Z,9.55
2022-09-20T01:04:24.695Z,10.18
2022-09-20T01:06:52.464Z,9.95
2022-09-20T01:09:19.566Z,9.68
2022-09-20T01:11:46.749Z,9.38
2022-09-20T01:14:14.494Z,10.50
2022-09-20T01:16:41.653Z,10.23
2022-09-20T01:19:11.179Z,10.25
2022-09-20T01:21:38.245Z,10.02
2022-09-20T01:24:05.354Z,10.10
2022-09-20T01:26:38.501Z,12.75
2022-09-20T01:29:08.482Z,13.90
2022-09-20T01:31:36.039Z,15.88
2022-09-20T01:34:05.016Z,14.82
2022-09-20T01:36:38.857Z,17.95
2022-09-20T01:39:24.670Z,10.02
2022-09-20T01:41:57.218Z,12.30
2022-09-20T01:44:28.852Z,10.55
2022-09-20T01:47:03.995Z,12.45
2022-09-20T01:49:46.279Z,10.82
2022-09-20T01:52:28.776Z,12.88
2022-09-20T01:55:01.826Z,15.43
2022-09-20T01:57:47.183Z,16.40
2022-09-20T02:00:16.031Z,10.20
2022-09-20T02:02:55.383Z,11.77
2022-09-20T02:05:31.442Z,10.75
2022-09-20T02:08:07.425Z,10.43
2022-09-20T02:10:37.345Z,11.88
2022-09-20T02:13:05.053Z,12.60
2022-09-20T02:15:50.938Z,11.60
2022-09-20T02:18:36.839Z,9.48
2022-09-20T02:21:18.616Z,10.23
2022-09-20T02:23:45.834Z,9.45
2022-09-20T02:26:31.543Z,10.93
2022-09-20T02:29:18.170Z,11.38
2022-09-20T02:32:04.211Z,11.80
2022-09-20T02:34:37.391Z,12.95
2022-09-20T02:37:10.450Z,12.30
2022-09-20T02:39:49.650Z,12.57
2022-09-20T02:42:18.268Z,11.93
2022-09-20T02:44:48.164Z,11.25
2022-09-20T02:47:18.023Z,11.88
2022-09-20T02:50:03.719Z,12.85
2022-09-20T02:52:37.043Z,10.85
2022-09-20T02:55:07.683Z,10.52
2022-09-20T02:58:04.010Z,11.45
2022-09-20T03:00:33.718Z,9.48
2022-09-20T03:03:19.617Z,10.18
2022-09-20T03:05:49.742Z,9.07
2022-09-20T03:08:19.583Z,9.90
2022-09-20T03:10:59.815Z,10.13
2022-09-20T03:13:26.891Z,10.25
2022-09-20T03:16:09.651Z,11.82
2022-09-20T03:18:51.797Z,10.98
2022-09-20T03:21:37.511Z,11.35
2022-09-20T03:24:27.958Z,11.40
2022-09-20T03:27:14.019Z,11.88
2022-09-20T03:29:44.493Z,12.45
2022-09-20T03:32:18.641Z,12.35
2022-09-20T03:35:03.932Z,11.25
2022-09-20T03:37:37.078Z,11.13
2022-09-20T03:40:04.285Z,10.40
2022-09-20T03:42:31.693Z,10.98
2022-09-20T03:45:07.685Z,10.98
2022-09-20T03:47:46.809Z,11.95
2022-09-20T03:50:13.897Z,11.00
2022-09-20T03:52:40.987Z,10.85
2022-09-20T03:55:14.883Z,10.45
2022-09-20T03:57:47.748Z,10.07
2022-09-20T04:00:29.962Z,9.50
2022-09-20T04:03:09.103Z,9.57
2022-09-20T04:06:02.576Z,8.73
2022-09-20T04:08:48.613Z,9.75
2022-09-20T04:11:15.751Z,7.97
2022-09-20T04:13:51.859Z,7.30
2022-09-20T04:16:33.073Z,7.60
2022-09-20T04:19:04.260Z,6.90
2022-09-20T04:21:34.486Z,6.53
2022-09-20T04:24:12.570Z,7.32
2022-09-20T04:26:45.106Z,9.45
2022-09-20T04:29:14.360Z,6.50
2022-09-20T04:31:48.090Z,7.05
2022-09-20T04:34:19.756Z,7.47
2022-09-20T04:37:16.963Z,8.40
2022-09-20T04:39:46.206Z,7.97
2022-09-20T04:42:31.759Z,7.15
2022-09-20T04:45:17.915Z,7.20
2022-09-20T04:47:53.873Z,8.07
2022-09-20T04:50:39.340Z,7.32
2022-09-20T04:53:14.963Z,7.32
2022-09-20T04:55:47.116Z,7.13
2022-09-20T04:58:17.355Z,8.00
2022-09-20T05:00:52.328Z,8.60
2022-09-20T05:03:25.631Z,10.68
2022-09-20T05:06:11.268Z,10.70
2022-09-20T05:08:46.709Z,11.23
2022-09-20T05:11:14.189Z,12.35
2022-09-20T05:13:57.164Z,10.32
2022-09-20T05:16:24.283Z,9.73
2022-09-20T05:18:55.700Z,10.23
2022-09-20T05:21:38.524Z,11.13
2022-09-20T05:24:41.183Z,11.32
2022-09-20T05:27:26.790Z,10.07
2022-09-20T05:30:04.297Z,10.50
2022-09-20T05:32:51.269Z,11.13
2022-09-20T05:35:27.246Z,11.00
2022-09-20T05:38:11.657Z,13.57
2022-09-20T05:41:00.301Z,13.75
2022-09-20T05:43:38.481Z,11.50
2022-09-20T05:46:27.493Z,13.02
2022-09-20T05:48:56.715Z,11.50
2022-09-20T05:51:42.286Z,12.52
2022-09-20T05:54:27.842Z,11.30
2022-09-20T05:57:01.119Z,11.70
2022-09-20T05:59:28.215Z,11.35
2022-09-20T06:02:10.472Z,11.10
2022-09-20T06:04:43.703Z,9.15
2022-09-20T06:07:22.995Z,11.00
2022-09-20T06:09:56.611Z,10.13
2022-09-20T06:12:26.726Z,9.05
2022-09-20T06:15:14.108Z,10.18
2022-09-20T06:17:45.058Z,8.93
2022-09-20T06:20:21.320Z,8.57
2022-09-20T06:22:52.316Z,8.45
2022-09-20T06:25:21.002Z,7.78
2022-09-20T06:27:51.971Z,7.60
2022-09-20T06:30:20.621Z,6.30
2022-09-20T06:32:57.812Z,6.55
2022-09-20T06:35:25.668Z,7.30
2022-09-20T06:38:27.907Z,8.18
2022-09-20T06:41:13.666Z,8.45
2022-09-20T06:43:41.172Z,9.00
2022-09-20T06:46:08.367Z,10.85
2022-09-20T06:48:39.807Z,13.48
2022-09-20T06:51:09.307Z,12.05
2022-09-20T06:53:37.554Z,10.20
2022-09-20T06:56:04.822Z,10.32
2022-09-20T06:58:32.489Z,10.57
2022-09-20T07:00:59.663Z,10.98
2022-09-20T07:03:26.775Z,11.20
2022-09-20T07:05:53.918Z,8.88
2022-09-20T07:08:21.006Z,9.20
2022-09-20T07:10:48.267Z,7.82
2022-09-20T07:13:15.430Z,8.05
2022-09-20T07:15:42.929Z,7.38
2022-09-20T07:18:10.030Z,8.18
2022-09-20T07:20:37.228Z,6.82
2022-09-20T07:23:04.396Z,7.43
2022-09-20T07:25:31.795Z,7.25
2022-09-20T07:27:58.984Z,6.60
2022-09-20T07:30:26.112Z,7.07
2022-09-20T07:32:53.595Z,7.70
2022-09-20T07:35:20.706Z,7.82
2022-09-20T07:37:47.859Z,8.45
2022-09-20T07:40:15.813Z,8.20
2022-09-20T07:42:45.405Z,8.23
2022-09-20T07:45:12.935Z,7.40
2022-09-20T07:47:42.011Z,7.40
2022-09-20T07:50:11.682Z,6.88
2022-09-20T07:52:38.840Z,6.63
2022-09-20T07:55:06.230Z,7.53
2022-09-20T07:57:37.291Z,7.78
2022-09-20T08:00:08.103Z,8.35
2022-09-20T08:02:35.211Z,11.35
2022-09-20T08:05:02.398Z,11.23
2022-09-20T08:07:29.732Z,11.25
2022-09-20T08:09:56.805Z,14.43
2022-09-20T08:15:12.046Z,7.70
2022-09-20T08:17:40.370Z,10.77
2022-09-20T08:20:07.832Z,6.18
2022-09-20T08:22:34.944Z,18.30
2022-09-20T08:25:02.082Z,8.65
2022-09-20T08:27:29.166Z,7.25
2022-09-20T08:29:57.473Z,6.30
2022-09-20T08:32:24.712Z,5.35
2022-09-20T08:34:51.825Z,5.43
2022-09-20T08:37:19.314Z,5.03
2022-09-20T08:40:01.924Z,5.80
2022-09-20T08:42:33.896Z,6.00
2022-09-20T08:45:02.608Z,7.20
2022-09-20T08:47:37.504Z,13.80
2022-09-20T08:50:17.416Z,6.35
2022-09-20T08:52:45.659Z,5.00
2022-09-20T08:55:17.538Z,7.72
2022-09-20T08:57:44.868Z,7.90
2022-09-20T09:00:17.572Z,5.97
2022-09-20T09:02:44.746Z,7.45
2022-09-20T09:05:32.264Z,8.88
2022-09-20T09:08:16.565Z,6.35
2022-09-20T09:10:54.227Z,6.20
2022-09-20T09:13:22.998Z,11.27
2022-09-20T09:15:53.003Z,10.32
2022-09-20T09:18:20.114Z,6.90
2022-09-20T09:20:47.291Z,5.13
2022-09-20T09:23:25.351Z,5.82
2022-09-20T09:25:52.512Z,5.20
2022-09-20T09:28:21.366Z,4.97
2022-09-20T09:30:48.501Z,8.10
2022-09-20T09:33:23.194Z,5.00
2022-09-20T09:35:54.251Z,5.13
2022-09-20T09:38:24.139Z,5.57
2022-09-20T09:40:52.361Z,5.25
2022-09-20T09:43:37.975Z,6.85
2022-09-20T09:46:22.089Z,5.10
2022-09-20T09:48:50.215Z,5.45
2022-09-20T09:51:18.325Z,4.22
2022-09-20T09:53:45.890Z,2.83
2022-09-20T09:56:31.352Z,3.50
2022-09-20T09:58:58.982Z,3.72
2022-09-20T10:01:39.600Z,3.83
2022-09-20T10:04:16.325Z,4.40
2022-09-20T10:06:49.438Z,4.55
2022-09-20T10:09:22.768Z,5.25
2022-09-20T10:11:56.974Z,5.20
2022-09-20T10:14:30.814Z,5.38
2022-09-20T10:16:58.004Z,5.05
2022-09-20T10:19:31.427Z,4.97
2022-09-20T10:22:05.109Z,4.90
2022-09-20T10:24:51.646Z,5.53
2022-09-20T10:27:37.517Z,5.43
2022-09-20T10:30:10.721Z,5.85
2022-09-20T10:32:45.845Z,6.00
2022-09-20T10:35:25.113Z,5.82
2022-09-20T10:37:58.073Z,6.07
2022-09-20T10:40:51.082Z,6.45
2022-09-20T10:43:41.934Z,7.20
2022-09-20T10:46:31.451Z,6.57
2022-09-20T10:49:03.951Z,5.35
2022-09-20T10:51:53.105Z,4.28
2022-09-20T10:54:23.821Z,4.43
2022-09-20T10:56:51.869Z,5.43
2022-09-20T10:59:31.507Z,5.05
2022-09-20T11:02:01.681Z,5.32
2022-09-20T11:04:47.633Z,3.00
2022-09-20T11:07:33.672Z,2.70
2022-09-20T11:10:28.702Z,2.20
2022-09-20T11:12:59.159Z,2.70
2022-09-20T11:15:31.174Z,2.60
2022-09-20T11:18:12.426Z,2.65
2022-09-20T11:20:44.272Z,3.42
2022-09-20T11:23:16.685Z,2.85
2022-09-20T11:25:44.816Z,2.90
2022-09-20T11:28:13.895Z,3.78
2022-09-20T11:30:43.375Z,2.92
2022-09-20T11:33:24.700Z,3.15
2022-09-20T11:35:52.827Z,2.95
2022-09-20T11:38:23.199Z,3.20
2022-09-20T11:40:51.951Z,5.80
2022-09-20T11:43:19.020Z,4.95
2022-09-20T11:45:46.318Z,6.43
2022-09-20T11:48:23.848Z,6.95
2022-09-20T11:50:50.939Z,3.50
2022-09-20T11:53:24.431Z,7.20
2022-09-20T11:56:00.746Z,3.60
2022-09-20T11:58:28.122Z,3.40
2022-09-20T12:00:57.107Z,2.50
2022-09-20T12:03:24.253Z,2.80
2022-09-20T12:06:04.323Z,1.98
2022-09-20T12:08:32.434Z,2.22
2022-09-20T12:11:04.293Z,3.70
2022-09-20T12:13:32.017Z,3.33
2022-09-20T12:16:00.205Z,2.50
2022-09-20T12:18:33.000Z,4.65
2022-09-20T12:21:04.553Z,6.05
2022-09-20T12:23:41.299Z,2.45
2022-09-20T12:26:23.697Z,2.10
2022-09-20T12:28:51.538Z,3.40
2022-09-20T12:31:33.794Z,2.28
2022-09-20T12:34:01.153Z,2.45
2022-09-20T12:36:29.099Z,3.00
2022-09-20T12:38:58.050Z,3.10
2022-09-20T12:41:28.768Z,4.28
2022-09-20T12:44:00.627Z,9.07
2022-09-20T12:46:32.924Z,7.03
2022-09-20T12:49:40.962Z,2.67
2022-09-20T12:52:42.661Z,2.05
2022-09-20T12:55:12.887Z,3.40
2022-09-20T12:57:40.806Z,2.97
2022-09-20T13:00:08.516Z,2.75
2022-09-20T13:02:53.906Z,5.38
2022-09-20T13:05:32.138Z,3.58
2022-09-20T13:08:22.285Z,2.45
2022-09-20T13:11:00.842Z,2.38
2022-09-20T13:13:27.973Z,2.42
2022-09-20T13:15:55.119Z,3.05
2022-09-20T13:18:22.341Z,1.85
2022-09-20T13:20:49.436Z,0.88
2022-09-20T13:23:18.610Z,1.85
2022-09-20T13:25:45.722Z,0.80
2022-09-20T13:28:24.986Z,1.70
2022-09-20T13:30:52.082Z,4.53
2022-09-20T13:33:25.743Z,5.78
2022-09-20T13:35:54.610Z,4.50
2022-09-20T13:38:25.088Z,4.03
2022-09-20T13:40:52.390Z,4.88
2022-09-20T13:43:28.546Z,4.03
2022-09-20T13:45:59.422Z,5.80
2022-09-20T13:48:27.462Z,4.38
2022-09-20T13:50:55.016Z,3.17
2022-09-20T13:53:40.017Z,2.92
2022-09-20T13:56:22.942Z,2.25
2022-09-20T13:58:50.749Z,1.60
2022-09-20T14:01:22.706Z,2.50
2022-09-20T14:03:49.957Z,2.25
2022-09-20T14:06:17.054Z,3.30
2022-09-20T14:08:45.007Z,2.95
2022-09-20T14:11:19.368Z,3.40
2022-09-20T14:13:50.432Z,5.55
2022-09-20T14:16:18.519Z,3.88
2022-09-20T14:18:48.394Z,6.13
2022-09-20T14:21:17.991Z,3.85
2022-09-20T14:23:54.192Z,3.35
2022-09-20T14:26:22.023Z,2.47
2022-09-20T14:28:49.123Z,2.55
2022-09-20T14:31:36.633Z,2.28
2022-09-20T14:34:03.926Z,2.47
2022-09-20T14:36:31.271Z,4.03
2022-09-20T14:38:59.834Z,3.05
2022-09-20T14:41:37.007Z,4.13
2022-09-20T14:44:04.175Z,4.05
2022-09-20T14:46:33.867Z,5.05
2022-09-20T14:49:19.614Z,3.65
2022-09-20T14:51:46.988Z,3.05
2022-09-20T14:54:14.073Z,3.85
2022-09-20T14:56:49.380Z,2.85
2022-09-20T14:59:19.717Z,2.90
2022-09-20T15:01:54.128Z,5.43
2022-09-20T15:04:25.326Z,9.00
2022-09-20T15:06:52.455Z,3.38
2022-09-20T15:09:19.624Z,2.38
2022-09-20T15:11:46.955Z,3.05
2022-09-20T15:14:14.077Z,3.55
2022-09-20T15:16:41.225Z,3.47
2022-09-20T15:19:09.217Z,3.67
2022-09-20T15:21:36.302Z,4.13
2022-09-20T15:24:03.518Z,3.20
2022-09-20T15:26:34.215Z,4.63
2022-09-20T15:29:01.324Z,3.50
2022-09-20T15:31:28.784Z,5.20
2022-09-20T15:33:55.903Z,5.75
2022-09-20T15:36:23.015Z,3.78
2022-09-20T15:38:50.310Z,3.17
2022-09-20T15:41:17.401Z,3.80
2022-09-20T15:43:44.522Z,6.22
2022-09-20T15:46:17.549Z,23.60
2022-09-20T15:48:44.636Z,34.25
2022-09-20T15:51:11.792Z,35.25
2022-09-20T15:53:40.813Z,39.13
2022-09-20T15:56:23.707Z,62.58
2022-09-20T15:58:51.668Z,93.00
2022-09-20T16:01:19.473Z,68.80
2022-09-20T16:03:46.945Z,33.78
2022-09-20T16:06:14.133Z,43.22
2022-09-20T16:08:41.908Z,55.97
2022-09-20T16:11:10.710Z,33.38
2022-09-20T16:13:38.771Z,27.10
2022-09-20T16:16:06.280Z,18.10
2022-09-20T16:18:52.302Z,12.98
2022-09-20T16:21:19.567Z,5.68
2022-09-20T16:23:50.346Z,5.93
2022-09-20T16:26:17.667Z,8.85
2022-09-20T16:28:47.501Z,4.97
2022-09-20T16:31:34.542Z,12.50
2022-09-20T16:34:05.392Z,10.00
2022-09-20T16:36:32.936Z,8.88
2022-09-20T16:39:01.195Z,7.25
2022-09-20T16:41:28.928Z,8.20
2022-09-20T16:43:56.193Z,11.07
2022-09-20T16:46:27.228Z,8.05
2022-09-20T16:48:54.833Z,6.70
2022-09-20T16:51:24.604Z,7.25
2022-09-20T16:53:55.644Z,6.50
2022-09-20T16:56:23.527Z,8.02
2022-09-20T16:58:51.244Z,7.35
2022-09-20T17:01:18.521Z,6.90
2022-09-20T17:03:46.018Z,5.47
2022-09-20T17:06:13.229Z,5.88
2022-09-20T17:08:40.548Z,6.88
2022-09-20T17:11:11.313Z,5.63
2022-09-20T17:13:41.750Z,6.47
2022-09-20T17:16:09.985Z,6.05
2022-09-20T17:18:41.894Z,5.15
2022-09-20T17:21:10.363Z,6.85
2022-09-20T17:23:37.664Z,8.93
2022-09-20T17:26:09.118Z,8.27
2022-09-20T17:28:37.444Z,13.88
2022-09-20T17:31:04.928Z,13.10
2022-09-20T17:33:33.567Z,22.23
2022-09-20T17:36:01.376Z,31.27
2022-09-20T17:38:29.069Z,34.03
2022-09-20T17:41:00.684Z,44.03
2022-09-20T17:43:29.865Z,44.33
2022-09-20T17:45:57.141Z,39.05
2022-09-20T17:48:24.277Z,40.78
2022-09-20T17:50:57.630Z,39.30
2022-09-20T17:53:24.796Z,57.03
2022-09-20T17:55:55.618Z,73.22
2022-09-20T17:58:23.233Z,56.45
2022-09-20T18:00:50.484Z,57.50
2022-09-20T18:03:18.320Z,51.25
2022-09-20T18:05:45.448Z,50.15
2022-09-20T18:08:13.862Z,57.33
2022-09-20T18:10:41.094Z,51.83
2022-09-20T18:13:08.176Z,47.92
2022-09-20T18:15:35.269Z,43.83
2022-09-20T18:18:03.076Z,47.05
2022-09-20T18:20:30.150Z,46.40
2022-09-20T18:22:57.254Z,39.83
2022-09-20T18:25:24.342Z,39.22
2022-09-20T18:27:51.413Z,34.13
2022-09-20T18:30:20.687Z,46.58
2022-09-20T18:32:50.656Z,61.88
2022-09-20T18:35:17.749Z,126.85
2022-09-20T18:37:46.104Z,66.18
2022-09-20T18:40:13.209Z,82.15
2022-09-20T18:42:40.330Z,58.92
2022-09-20T18:45:08.236Z,58.88
2022-09-20T18:47:36.413Z,73.75
2022-09-20T18:50:03.565Z,111.95
2022-09-20T18:52:31.972Z,142.15
2022-09-20T18:54:59.117Z,133.57
2022-09-20T18:57:26.365Z,115.05
2022-09-20T18:59:55.206Z,103.15
2022-09-20T19:02:31.609Z,111.28
2022-09-20T19:05:07.164Z,99.85
2022-09-20T19:07:47.200Z,81.00
2022-09-20T19:10:37.893Z,38.67
2022-09-20T19:13:11.397Z,36.95
2022-09-20T19:15:57.504Z,25.67
2022-09-20T19:18:30.713Z,35.15
2022-09-20T19:21:06.850Z,36.35
2022-09-20T19:23:41.150Z,38.40
2022-09-20T19:26:09.769Z,40.95
2022-09-20T19:28:37.014Z,55.08
2022-09-20T19:31:04.315Z,47.15
2022-09-20T19:33:31.517Z,43.65
2022-09-20T19:35:59.176Z,44.20
2022-09-20T19:38:48.110Z,46.25
2022-09-20T19:41:18.139Z,41.30
2022-09-20T19:43:54.101Z,37.00
2022-09-20T19:46:33.194Z,35.00
2022-09-20T19:49:07.430Z,34.03
2022-09-20T19:51:35.695Z,33.25
2022-09-20T19:54:02.889Z,37.28
2022-09-20T19:56:30.000Z,39.25
2022-09-20T19:58:57.691Z,35.95
2022-09-20T20:01:25.353Z,32.30
2022-09-20T20:03:52.721Z,34.35
2022-09-20T20:06:19.777Z,38.95
2022-09-20T20:08:50.593Z,41.75
2022-09-20T20:11:36.803Z,51.83
2022-09-20T20:14:03.927Z,51.05
2022-09-20T20:16:43.222Z,54.50
2022-09-20T20:19:30.559Z,49.03
2022-09-20T20:21:58.620Z,50.05
2022-09-20T20:24:25.847Z,49.97
2022-09-20T20:26:52.972Z,50.67
2022-09-20T20:29:20.192Z,48.40
2022-09-20T20:31:47.348Z,49.17
2022-09-20T20:34:17.380Z,45.95
2022-09-20T20:36:44.670Z,51.40
2022-09-20T20:39:12.030Z,48.38
2022-09-20T20:41:40.597Z,39.90
2022-09-20T20:44:07.733Z,36.30
2022-09-20T20:46:35.906Z,36.53
2022-09-20T20:49:03.658Z,38.58
2022-09-20T20:51:32.945Z,39.40
2022-09-20T20:54:00.087Z,35.30
2022-09-20T20:56:30.254Z,31.77
2022-09-20T20:59:00.521Z,39.90
2022-09-20T21:01:31.388Z,62.00
2022-09-20T21:03:58.725Z,80.95
2022-09-20T21:06:27.937Z,87.35
2022-09-20T21:08:55.058Z,82.15
2022-09-20T21:11:26.084Z,71.50
2022-09-20T21:13:53.490Z,76.35
2022-09-20T21:16:21.802Z,69.60
2022-09-20T21:18:49.169Z,66.68
2022-09-20T21:21:20.016Z,63.60
2022-09-20T21:23:47.617Z,54.30
2022-09-20T21:26:15.766Z,40.70
2022-09-20T21:28:43.721Z,36.58
2022-09-20T21:31:11.181Z,37.22
2022-09-20T21:33:39.104Z,35.70
2022-09-20T21:36:07.203Z,32.85
2022-09-20T21:38:34.654Z,33.65
2022-09-20T21:41:12.072Z,23.27
2022-09-20T21:43:41.538Z,19.95
2022-09-20T21:46:16.192Z,24.85
2022-09-20T21:48:43.396Z,24.00
2022-09-20T21:51:11.032Z,23.20
2022-09-20T21:53:39.202Z,21.77
2022-09-20T21:56:09.930Z,22.27
2022-09-20T21:58:40.001Z,18.20
2022-09-20T22:01:11.603Z,21.25
2022-09-20T22:03:39.607Z,20.67
2022-09-20T22:06:08.702Z,25.38
2022-09-20T22:08:37.032Z,26.70
2022-09-20T22:11:04.419Z,28.25
2022-09-20T22:13:31.575Z,26.98
2022-09-20T22:16:05.487Z,29.63
2022-09-20T22:18:37.601Z,27.05
2022-09-20T22:21:12.069Z,24.73
2022-09-20T22:23:39.217Z,23.92
2022-09-20T22:26:07.724Z,24.05
2022-09-20T22:28:34.917Z,22.63
2022-09-20T22:31:12.309Z,24.15
2022-09-20T22:33:49.417Z,23.13
2022-09-20T22:36:17.323Z,25.20
2022-09-20T22:38:44.603Z,24.85
2022-09-20T22:41:12.025Z,26.95
2022-09-20T22:43:39.193Z,23.35
2022-09-20T22:46:07.146Z,21.10
2022-09-20T22:48:34.489Z,19.70
2022-09-20T22:51:05.571Z,20.70
2022-09-20T22:53:32.707Z,19.67
2022-09-20T22:56:03.999Z,21.63
2022-09-20T22:58:37.402Z,22.58
2022-09-20T23:01:10.739Z,15.98
2022-09-20T23:03:41.549Z,15.35
2022-09-20T23:06:15.591Z,16.08
2022-09-20T23:08:42.717Z,15.07
2022-09-20T23:11:10.008Z,14.60
2022-09-20T23:13:37.257Z,13.82
2022-09-20T23:16:18.641Z,12.77
2022-09-20T23:18:49.319Z,12.73
2022-09-20T23:21:16.528Z,10.50
2022-09-20T23:23:43.762Z,10.70
2022-09-20T23:26:11.700Z,14.20
2022-09-20T23:28:39.648Z,10.77
2022-09-20T23:31:07.705Z,9.85
2022-09-20T23:33:34.885Z,10.25
2022-09-20T23:36:03.555Z,9.85
2022-09-20T23:38:30.637Z,7.95
2022-09-20T23:41:02.322Z,9.88
2022-09-20T23:43:29.399Z,8.40
2022-09-20T23:45:56.603Z,9.32
2022-09-20T23:48:23.718Z,12.02
2022-09-20T23:50:50.799Z,13.45
2022-09-20T23:53:18.449Z,11.35
2022-09-20T23:55:45.571Z,12.82
2022-09-20T23:58:12.647Z,13.77
